createdAt,value
2023-02-20T00:00:02.471Z,93624.00
2023-02-20T00:01:02.468Z,93632.00
2023-02-20T00:02:02.452Z,93628.00
2023-02-20T00:03:02.430Z,93638.00
2023-02-20T00:04:02.414Z,93636.00
2023-02-20T00:05:02.468Z,93626.00
2023-02-20T00:06:02.380Z,93632.00
2023-02-20T00:07:02.359Z,93636.00
2023-02-20T00:08:02.358Z,93636.00
2023-02-20T00:09:02.536Z,93632.00
2023-02-20T00:10:02.320Z,93632.00
2023-02-20T00:11:02.303Z,93632.00
2023-02-20T00:12:02.278Z,93634.00
2023-02-20T00:13:02.256Z,93634.00
2023-02-20T00:14:02.236Z,93640.00
2023-02-20T00:15:02.215Z,93634.00
2023-02-20T00:16:02.265Z,93632.00
2023-02-20T00:17:02.189Z,93632.00
2023-02-20T00:18:02.140Z,93630.00
2023-02-20T00:19:02.122Z,93628.00
2023-02-20T00:20:02.097Z,93620.00
2023-02-20T00:21:02.069Z,93620.00
2023-02-20T00:22:02.034Z,93622.00
2023-02-20T00:23:02.025Z,93622.00
2023-02-20T00:24:02.002Z,93622.00
2023-02-20T00:25:01.972Z,93622.00
2023-02-20T00:26:01.940Z,93622.00
2023-02-20T00:27:01.917Z,93624.00
2023-02-20T00:28:01.926Z,93622.00
2023-02-20T00:29:01.951Z,93622.00
2023-02-20T00:30:02.568Z,93624.00
2023-02-20T00:31:01.955Z,93624.00
2023-02-20T00:32:01.845Z,93626.00
2023-02-20T00:33:01.813Z,93626.00
2023-02-20T00:34:01.773Z,93628.00
2023-02-20T00:35:01.748Z,93622.00
2023-02-20T00:36:01.726Z,93624.00
2023-02-20T00:37:01.706Z,93626.00
2023-02-20T00:38:01.701Z,93628.00
2023-02-20T00:39:01.668Z,93628.00
2023-02-20T00:40:01.642Z,93630.00
2023-02-20T00:41:01.632Z,93636.00
2023-02-20T00:42:01.593Z,93638.00
2023-02-20T00:43:01.640Z,93640.00
2023-02-20T00:44:01.547Z,93636.00
2023-02-20T00:45:01.529Z,93636.00
2023-02-20T00:46:01.537Z,93640.00
2023-02-20T00:47:01.483Z,93642.00
2023-02-20T00:48:01.450Z,93644.00
2023-02-20T00:49:01.431Z,93645.00
2023-02-20T00:50:01.418Z,93645.00
2023-02-20T00:51:01.410Z,93649.00
2023-02-20T00:52:01.385Z,93653.00
2023-02-20T00:53:01.366Z,93659.00
2023-02-20T00:54:01.340Z,93661.00
2023-02-20T00:55:01.319Z,93659.00
2023-02-20T00:56:01.317Z,93657.00
2023-02-20T00:57:01.305Z,93653.00
2023-02-20T00:58:02.156Z,93653.00
2023-02-20T00:59:01.282Z,93655.00
2023-02-20T01:00:01.254Z,93653.00
2023-02-20T01:01:01.231Z,93649.00
2023-02-20T01:02:01.292Z,93651.00
2023-02-20T01:03:01.283Z,93655.00
2023-02-20T01:04:01.172Z,93655.00
2023-02-20T01:05:01.157Z,93655.00
2023-02-20T01:06:01.133Z,93653.00
2023-02-20T01:07:01.111Z,93655.00
2023-02-20T01:08:01.083Z,93657.00
2023-02-20T01:09:01.067Z,93657.00
2023-02-20T01:10:01.054Z,93659.00
2023-02-20T01:11:01.018Z,93657.00
2023-02-20T01:12:01.009Z,93657.00
2023-02-20T01:13:00.991Z,93659.00
2023-02-20T01:14:00.965Z,93663.00
2023-02-20T01:15:01.118Z,93667.00
2023-02-20T01:46:00.235Z,93659.00
2023-02-20T01:47:00.299Z,93655.00
2023-02-20T01:49:00.171Z,93651.00
2023-02-20T01:50:00.139Z,93657.00
2023-02-20T01:51:00.143Z,93657.00
2023-02-20T01:52:00.113Z,93653.00
2023-02-20T01:53:00.176Z,93659.00
2023-02-20T01:54:00.090Z,93653.00
2023-02-20T01:55:00.051Z,93659.00
2023-02-20T01:56:00.086Z,93659.00
2023-02-20T01:57:00.022Z,93657.00
2023-02-20T01:57:59.998Z,93667.00
2023-02-20T01:58:59.971Z,93671.00
2023-02-20T01:59:59.962Z,93669.00
2023-02-20T02:00:59.969Z,93665.00
2023-02-20T02:01:59.933Z,93665.00
2023-02-20T02:02:59.894Z,93665.00
2023-02-20T02:03:59.866Z,93671.00
2023-02-20T02:04:59.853Z,93677.00
2023-02-20T02:05:59.817Z,93679.00
2023-02-20T02:06:59.800Z,93677.00
2023-02-20T02:07:59.781Z,93675.00
2023-02-20T02:09:00.522Z,93675.00
2023-02-20T02:09:59.721Z,93675.00
2023-02-20T02:10:59.692Z,93675.00
2023-02-20T02:11:59.661Z,93675.00
2023-02-20T02:12:59.637Z,93677.00
2023-02-20T02:13:59.615Z,93669.00
2023-02-20T02:14:59.592Z,93673.00
2023-02-20T02:15:59.586Z,93669.00
2023-02-20T02:16:59.532Z,93675.00
2023-02-20T02:17:59.516Z,93675.00
2023-02-20T02:18:59.484Z,93679.00
2023-02-20T02:19:59.469Z,93679.00
2023-02-20T02:20:59.456Z,93673.00
2023-02-20T02:21:59.448Z,93677.00
2023-02-20T02:22:59.466Z,93677.00
2023-02-20T02:23:59.458Z,93679.00
2023-02-20T02:24:59.454Z,93681.00
2023-02-20T02:25:59.450Z,93681.00
2023-02-20T02:26:59.419Z,93681.00
2023-02-20T02:27:59.429Z,93683.00
2023-02-20T02:28:59.382Z,93685.00
2023-02-20T02:29:59.355Z,93685.00
2023-02-20T02:30:59.368Z,93685.00
2023-02-20T02:31:59.328Z,93689.00
2023-02-20T02:32:59.297Z,93692.00
2023-02-20T02:33:59.271Z,93696.00
2023-02-20T02:34:59.251Z,93696.00
2023-02-20T02:35:59.246Z,93698.00
2023-02-20T02:36:59.215Z,93696.00
2023-02-20T02:37:59.208Z,93694.00
2023-02-20T02:38:59.205Z,93692.00
2023-02-20T02:39:59.184Z,93691.00
2023-02-20T02:40:59.179Z,93694.00
2023-02-20T02:41:59.159Z,93696.00
2023-02-20T02:42:59.128Z,93698.00
2023-02-20T02:43:59.134Z,93698.00
2023-02-20T02:44:59.099Z,93700.00
2023-02-20T02:45:59.118Z,93702.00
2023-02-20T02:46:59.059Z,93704.00
2023-02-20T02:47:59.032Z,93706.00
2023-02-20T02:48:59.022Z,93710.00
2023-02-20T02:49:59.028Z,93712.00
2023-02-20T02:50:59.039Z,93714.00
2023-02-20T02:51:59.058Z,93714.00
2023-02-20T02:52:59.027Z,93714.00
2023-02-20T02:53:59.013Z,93714.00
2023-02-20T02:54:59.025Z,93716.00
2023-02-20T02:55:59.036Z,93712.00
2023-02-20T02:56:59.062Z,93714.00
2023-02-20T02:57:59.062Z,93714.00
2023-02-20T02:58:59.059Z,93712.00
2023-02-20T02:59:59.065Z,93710.00
2023-02-20T03:00:59.167Z,93710.00
2023-02-20T03:01:59.057Z,93708.00
2023-02-20T03:02:59.042Z,93712.00
2023-02-20T03:03:59.047Z,93710.00
2023-02-20T03:04:59.071Z,93712.00
2023-02-20T03:05:59.057Z,93712.00
2023-02-20T03:06:59.050Z,93712.00
2023-02-20T03:07:59.057Z,93716.00
2023-02-20T03:08:59.034Z,93714.00
2023-02-20T03:09:59.022Z,93716.00
2023-02-20T03:10:59.017Z,93718.00
2023-02-20T03:11:59.021Z,93716.00
2023-02-20T03:12:59.021Z,93718.00
2023-02-20T03:13:59.034Z,93720.00
2023-02-20T03:14:59.029Z,93726.00
2023-02-20T03:15:59.063Z,93728.00
2023-02-20T03:16:59.038Z,93728.00
2023-02-20T03:17:59.083Z,93726.00
2023-02-20T03:19:00.015Z,93728.00
2023-02-20T03:19:58.994Z,93726.00
2023-02-20T03:20:58.978Z,93722.00
2023-02-20T03:21:58.946Z,93728.00
2023-02-20T03:22:58.918Z,93730.00
2023-02-20T03:23:58.931Z,93734.00
2023-02-20T03:24:58.895Z,93734.00
2023-02-20T03:25:58.880Z,93732.00
2023-02-20T03:26:58.869Z,93734.00
2023-02-20T03:27:59.525Z,93736.00
2023-02-20T03:28:58.851Z,93736.00
2023-02-20T03:29:58.857Z,93741.00
2023-02-20T03:30:58.870Z,93739.00
2023-02-20T03:31:58.890Z,93741.00
2023-02-20T03:32:58.764Z,93738.00
2023-02-20T03:33:58.751Z,93739.00
2023-02-20T03:34:58.735Z,93743.00
2023-02-20T03:35:58.726Z,93745.00
2023-02-20T03:36:58.713Z,93741.00
2023-02-20T03:37:58.672Z,93741.00
2023-02-20T03:38:58.648Z,93743.00
2023-02-20T03:39:58.635Z,93738.00
2023-02-20T03:40:58.608Z,93741.00
2023-02-20T03:41:58.605Z,93743.00
2023-02-20T03:42:58.607Z,93745.00
2023-02-20T03:43:58.651Z,93745.00
2023-02-20T03:44:58.626Z,93745.00
2023-02-20T03:45:58.615Z,93745.00
2023-02-20T03:46:58.591Z,93745.00
2023-02-20T03:47:58.564Z,93751.00
2023-02-20T03:48:58.548Z,93745.00
2023-02-20T03:49:58.551Z,93747.00
2023-02-20T03:50:58.527Z,93751.00
2023-02-20T03:51:58.529Z,93747.00
2023-02-20T03:52:58.499Z,93745.00
2023-02-20T03:53:58.478Z,93747.00
2023-02-20T03:54:58.479Z,93749.00
2023-02-20T03:55:58.472Z,93749.00
2023-02-20T03:56:58.463Z,93751.00
2023-02-20T03:57:58.450Z,93747.00
2023-02-20T03:58:58.440Z,93739.00
2023-02-20T03:59:58.439Z,93741.00
2023-02-20T04:00:58.467Z,93738.00
2023-02-20T04:01:58.517Z,93738.00
2023-02-20T04:02:58.457Z,93736.00
2023-02-20T04:03:58.524Z,93734.00
2023-02-20T04:04:58.571Z,93730.00
2023-02-20T04:05:58.606Z,93730.00
2023-02-20T04:06:58.603Z,93730.00
2023-02-20T04:07:58.658Z,93728.00
2023-02-20T04:08:58.620Z,93728.00
2023-02-20T04:09:58.623Z,93728.00
2023-02-20T04:10:58.676Z,93728.00
2023-02-20T04:11:58.613Z,93726.00
2023-02-20T04:12:58.622Z,93726.00
2023-02-20T04:13:58.636Z,93728.00
2023-02-20T04:14:58.662Z,93730.00
2023-02-20T04:15:58.700Z,93732.00
2023-02-20T04:16:58.707Z,93734.00
2023-02-20T04:17:58.716Z,93736.00
2023-02-20T04:18:58.698Z,93736.00
2023-02-20T04:19:58.694Z,93739.00
2023-02-20T04:20:58.692Z,93736.00
2023-02-20T04:21:58.704Z,93736.00
2023-02-20T04:22:58.713Z,93736.00
2023-02-20T04:23:58.719Z,93738.00
2023-02-20T04:24:58.724Z,93738.00
2023-02-20T04:25:58.701Z,93736.00
2023-02-20T04:26:58.703Z,93738.00
2023-02-20T04:27:58.684Z,93743.00
2023-02-20T04:28:58.656Z,93747.00
2023-02-20T04:29:58.686Z,93749.00
2023-02-20T04:30:58.718Z,93753.00
2023-02-20T04:31:58.644Z,93759.00
2023-02-20T04:32:58.594Z,93759.00
2023-02-20T04:33:58.583Z,93759.00
2023-02-20T04:34:58.565Z,93757.00
2023-02-20T04:35:58.597Z,93755.00
2023-02-20T04:36:58.532Z,93755.00
2023-02-20T04:37:58.520Z,93751.00
2023-02-20T04:38:58.493Z,93749.00
2023-02-20T04:39:58.480Z,93747.00
2023-02-20T04:40:58.462Z,93745.00
2023-02-20T04:41:58.452Z,93743.00
2023-02-20T04:42:58.450Z,93745.00
2023-02-20T04:43:58.438Z,93743.00
2023-02-20T04:44:58.411Z,93745.00
2023-02-20T04:45:58.412Z,93745.00
2023-02-20T04:46:58.382Z,93745.00
2023-02-20T04:47:58.353Z,93745.00
2023-02-20T04:48:58.330Z,93743.00
2023-02-20T04:49:58.307Z,93743.00
2023-02-20T04:50:58.294Z,93745.00
2023-02-20T04:51:58.274Z,93743.00
2023-02-20T04:52:58.269Z,93741.00
2023-02-20T04:53:58.235Z,93743.00
2023-02-20T04:54:58.200Z,93743.00
2023-02-20T04:55:58.174Z,93743.00
2023-02-20T04:56:58.152Z,93745.00
2023-02-20T04:57:58.164Z,93741.00
2023-02-20T04:58:58.140Z,93741.00
2023-02-20T04:59:58.191Z,93747.00
2023-02-20T05:00:58.105Z,93743.00
2023-02-20T05:01:58.100Z,93743.00
2023-02-20T05:02:58.164Z,93743.00
2023-02-20T05:03:58.056Z,93741.00
2023-02-20T05:04:58.048Z,93741.00
2023-02-20T05:05:58.049Z,93743.00
2023-02-20T05:06:58.021Z,93739.00
2023-02-20T05:07:58.006Z,93739.00
2023-02-20T05:08:58.041Z,93743.00
2023-02-20T05:09:57.979Z,93743.00
2023-02-20T05:10:57.970Z,93747.00
2023-02-20T05:11:57.938Z,93749.00
2023-02-20T05:12:57.914Z,93753.00
2023-02-20T05:13:57.901Z,93755.00
2023-02-20T05:14:57.916Z,93759.00
2023-02-20T05:15:57.994Z,93755.00
2023-02-20T05:16:57.950Z,93759.00
2023-02-20T05:17:57.953Z,93761.00
2023-02-20T05:18:57.958Z,93761.00
2023-02-20T05:19:57.963Z,93767.00
2023-02-20T05:20:57.956Z,93769.00
2023-02-20T05:21:57.958Z,93771.00
2023-02-20T05:22:57.945Z,93769.00
2023-02-20T05:23:57.919Z,93771.00
2023-02-20T05:24:57.905Z,93775.00
2023-02-20T05:25:57.893Z,93775.00
2023-02-20T05:26:57.880Z,93775.00
2023-02-20T05:27:57.904Z,93777.00
2023-02-20T05:28:57.894Z,93775.00
2023-02-20T05:29:57.872Z,93775.00
2023-02-20T05:30:57.882Z,93775.00
2023-02-20T05:31:57.874Z,93777.00
2023-02-20T05:32:57.850Z,93777.00
2023-02-20T05:33:57.905Z,93777.00
2023-02-20T05:34:57.916Z,93777.00
2023-02-20T05:35:57.827Z,93775.00
2023-02-20T05:36:57.844Z,93773.00
2023-02-20T05:37:57.836Z,93773.00
2023-02-20T05:38:57.832Z,93771.00
2023-02-20T05:39:57.817Z,93779.00
2023-02-20T06:08:57.998Z,93794.00
2023-02-20T06:37:58.505Z,93808.00
2023-02-20T06:42:58.554Z,93812.00
2023-02-20T07:26:56.356Z,93834.00
2023-02-20T07:27:56.346Z,93828.00
2023-02-20T07:28:56.305Z,93832.00
2023-02-20T07:29:56.329Z,93834.00
2023-02-20T07:30:56.250Z,93830.00
2023-02-20T07:38:57.011Z,93832.00
2023-02-20T08:29:57.447Z,93789.00
2023-02-20T08:33:56.481Z,93779.00
2023-02-20T09:14:56.246Z,93757.00
2023-02-20T09:15:56.276Z,93761.00
2023-02-20T09:16:56.395Z,93759.00
2023-02-20T09:17:56.375Z,93761.00
2023-02-20T09:18:57.622Z,93759.00
2023-02-20T09:19:56.483Z,93757.00
2023-02-20T09:20:56.510Z,93759.00
2023-02-20T09:21:56.554Z,93755.00
2023-02-20T09:22:56.639Z,93757.00
2023-02-20T09:23:56.686Z,93761.00
2023-02-20T09:24:56.733Z,93755.00
2023-02-20T09:25:56.685Z,93751.00
2023-02-20T09:26:57.020Z,93751.00
2023-02-20T09:27:56.735Z,93751.00
2023-02-20T09:28:56.767Z,93751.00
2023-02-20T09:29:56.786Z,93743.00
2023-02-20T09:30:56.787Z,93747.00
2023-02-20T09:31:56.908Z,93739.00
2023-02-20T09:32:56.830Z,93738.00
2023-02-20T09:34:56.781Z,93738.00
2023-02-20T09:35:56.810Z,93739.00
2023-02-20T09:36:56.724Z,93738.00
2023-02-20T09:42:56.587Z,93730.00
2023-02-20T09:43:56.592Z,93734.00
2023-02-20T09:44:56.622Z,93736.00
2023-02-20T09:45:56.758Z,93732.00
2023-02-20T09:46:56.699Z,93728.00
2023-02-20T09:47:56.725Z,93734.00
2023-02-20T09:48:56.751Z,93730.00
2023-02-20T09:49:56.789Z,93732.00
2023-02-20T09:50:56.875Z,93728.00
2023-02-20T10:05:57.311Z,93694.00
2023-02-20T10:08:57.417Z,93700.00
2023-02-20T10:10:57.468Z,93696.00
2023-02-20T10:11:57.504Z,93694.00
2023-02-20T10:13:57.583Z,93692.00
2023-02-20T10:14:57.615Z,93691.00
2023-02-20T10:15:57.686Z,93694.00
2023-02-20T10:16:58.600Z,93691.00
2023-02-20T10:17:58.471Z,93689.00
2023-02-20T10:18:57.539Z,93687.00
2023-02-20T10:19:57.520Z,93687.00
2023-02-20T10:20:58.403Z,93689.00
2023-02-20T10:21:57.550Z,93685.00
2023-02-20T10:22:57.418Z,93687.00
2023-02-20T10:24:05.532Z,93687.00
2023-02-20T10:24:58.942Z,93679.00
2023-02-20T10:25:57.318Z,93685.00
2023-02-20T10:27:57.244Z,93675.00
2023-02-20T10:28:58.009Z,93673.00
2023-02-20T10:29:57.928Z,93673.00
2023-02-20T10:30:57.188Z,93671.00
2023-02-20T10:31:58.092Z,93669.00
2023-02-20T10:32:57.091Z,93667.00
2023-02-20T10:33:57.116Z,93661.00
2023-02-20T10:34:57.210Z,93661.00
2023-02-20T10:35:57.262Z,93659.00
2023-02-20T10:36:57.199Z,93655.00
2023-02-20T10:37:57.235Z,93655.00
2023-02-20T10:38:57.307Z,93655.00
2023-02-20T10:39:57.265Z,93655.00
2023-02-20T10:40:57.300Z,93655.00
2023-02-20T10:41:57.313Z,93651.00
2023-02-20T10:42:57.350Z,93645.00
2023-02-20T10:43:57.355Z,93647.00
2023-02-20T10:44:57.369Z,93647.00
2023-02-20T10:45:57.407Z,93640.00
2023-02-20T10:46:57.489Z,93647.00
2023-02-20T10:47:57.505Z,93642.00
2023-02-20T10:48:57.448Z,93638.00
2023-02-20T10:49:57.481Z,93634.00
2023-02-20T10:50:57.474Z,93634.00
2023-02-20T10:51:57.493Z,93632.00
2023-02-20T10:52:57.523Z,93626.00
2023-02-20T10:53:58.478Z,93618.00
2023-02-20T10:54:58.401Z,93622.00
2023-02-20T10:55:57.552Z,93618.00
2023-02-20T10:56:58.480Z,93616.00
2023-02-20T10:57:57.583Z,93620.00
2023-02-20T10:58:57.598Z,93616.00
2023-02-20T10:59:58.408Z,93614.00
2023-02-20T11:00:57.627Z,93614.00
2023-02-20T11:01:57.742Z,93614.00
2023-02-20T11:02:57.700Z,93606.00
2023-02-20T11:03:57.700Z,93600.00
2023-02-20T11:04:58.397Z,93599.00
2023-02-20T11:05:58.481Z,93599.00
2023-02-20T11:06:57.801Z,93600.00
2023-02-20T11:07:57.776Z,93599.00
2023-02-20T11:08:57.782Z,93600.00
2023-02-20T11:09:57.815Z,93599.00
2023-02-20T11:10:57.827Z,93600.00
2023-02-20T11:11:57.836Z,93600.00
2023-02-20T11:12:57.881Z,93599.00
2023-02-20T11:13:57.907Z,93597.00
2023-02-20T11:14:57.935Z,93593.00
2023-02-20T11:15:57.988Z,93595.00
2023-02-20T11:16:58.993Z,93593.00
2023-02-20T11:17:58.969Z,93589.00
2023-02-20T11:18:58.030Z,93589.00
2023-02-20T11:19:58.893Z,93583.00
2023-02-20T11:20:58.035Z,93577.00
2023-02-20T11:21:58.039Z,93575.00
2023-02-20T11:22:58.968Z,93569.00
2023-02-20T11:23:58.048Z,93565.00
2023-02-20T11:24:58.044Z,93557.00
2023-02-20T11:25:58.040Z,93561.00
2023-02-20T11:26:58.087Z,93557.00
2023-02-20T11:27:58.064Z,93555.00
2023-02-20T11:28:58.076Z,93550.00
2023-02-20T11:29:58.153Z,93550.00
2023-02-20T11:30:58.154Z,93544.00
2023-02-20T11:31:58.278Z,93546.00
2023-02-20T11:32:58.146Z,93544.00
2023-02-20T11:33:58.141Z,93540.00
2023-02-20T11:34:58.159Z,93542.00
2023-02-20T11:35:58.168Z,93538.00
2023-02-20T11:36:58.194Z,93536.00
2023-02-20T11:37:58.989Z,93538.00
2023-02-20T11:38:58.973Z,93536.00
2023-02-20T11:39:58.254Z,93536.00
2023-02-20T11:40:58.241Z,93536.00
2023-02-20T11:41:58.274Z,93534.00
2023-02-20T11:42:58.286Z,93536.00
2023-02-20T11:44:01.493Z,93530.00
2023-02-20T11:44:58.360Z,93528.00
2023-02-20T11:45:58.254Z,93528.00
2023-02-20T11:46:58.236Z,93522.00
2023-02-20T11:47:58.210Z,93524.00
2023-02-20T11:48:58.214Z,93520.00
2023-02-20T11:49:59.955Z,93518.00
2023-02-20T11:50:58.095Z,93516.00
2023-02-20T11:51:58.057Z,93514.00
2023-02-20T11:52:59.041Z,93512.00
2023-02-20T11:53:57.991Z,93512.00
2023-02-20T11:54:57.954Z,93508.00
2023-02-20T11:56:00.289Z,93505.00
2023-02-20T11:56:57.983Z,93505.00
2023-02-20T11:57:58.038Z,93501.00
2023-02-20T11:58:57.990Z,93499.00
2023-02-20T11:59:58.078Z,93499.00
2023-02-20T12:00:58.039Z,93495.00
2023-02-20T12:02:01.180Z,93497.00
2023-02-20T12:02:58.060Z,93499.00
2023-02-20T12:03:58.068Z,93499.00
2023-02-20T12:04:58.945Z,93499.00
2023-02-20T12:05:57.974Z,93499.00
2023-02-20T12:06:57.862Z,93497.00
2023-02-20T12:07:57.817Z,93499.00
2023-02-20T12:08:57.786Z,93493.00
2023-02-20T12:09:57.763Z,93495.00
2023-02-20T12:10:57.709Z,93493.00
2023-02-20T12:11:57.682Z,93487.00
2023-02-20T12:12:57.656Z,93487.00
2023-02-20T12:13:57.607Z,93481.00
2023-02-20T12:14:57.580Z,93479.00
2023-02-20T12:15:57.601Z,93481.00
2023-02-20T12:16:57.577Z,93477.00
2023-02-20T12:17:57.579Z,93475.00
2023-02-20T12:18:57.586Z,93473.00
2023-02-20T12:19:57.704Z,93471.00
2023-02-20T12:20:57.608Z,93467.00
2023-02-20T12:21:57.626Z,93469.00
2023-02-20T12:22:57.628Z,93467.00
2023-02-20T12:23:57.641Z,93467.00
2023-02-20T12:24:57.642Z,93465.00
2023-02-20T12:25:57.658Z,93463.00
2023-02-20T12:27:57.686Z,93461.00
2023-02-20T12:28:57.716Z,93463.00
2023-02-20T12:29:57.731Z,93463.00
2023-02-20T12:30:57.722Z,93461.00
2023-02-20T12:31:57.874Z,93459.00
2023-02-20T12:32:57.756Z,93457.00
2023-02-20T12:33:57.775Z,93457.00
2023-02-20T12:34:57.799Z,93451.00
2023-02-20T12:35:57.861Z,93450.00
2023-02-20T12:36:58.470Z,93450.00
2023-02-20T12:37:57.876Z,93450.00
2023-02-20T12:38:57.825Z,93444.00
2023-02-20T12:40:57.854Z,93444.00
2023-02-20T12:41:57.852Z,93444.00
2023-02-20T12:48:57.954Z,93428.00
2023-02-20T12:49:57.983Z,93430.00
2023-02-20T12:50:57.994Z,93426.00
2023-02-20T12:51:59.012Z,93426.00
2023-02-20T12:52:57.991Z,93426.00
2023-02-20T12:53:58.030Z,93428.00
2023-02-20T12:54:59.015Z,93428.00
2023-02-20T12:55:58.099Z,93428.00
2023-02-20T12:56:59.436Z,93424.00
2023-02-20T12:57:58.965Z,93426.00
2023-02-20T12:58:58.107Z,93428.00
2023-02-20T12:59:58.247Z,93426.00
2023-02-20T13:00:58.179Z,93426.00
2023-02-20T13:01:58.111Z,93424.00
2023-02-20T13:03:58.232Z,93424.00
2023-02-20T13:06:58.170Z,93412.00
2023-02-20T13:07:58.186Z,93414.00
2023-02-20T13:08:58.196Z,93414.00
2023-02-20T13:09:59.046Z,93410.00
2023-02-20T13:10:58.221Z,93404.00
2023-02-20T13:11:58.242Z,93406.00
2023-02-20T13:12:58.264Z,93406.00
2023-02-20T13:13:58.269Z,93404.00
2023-02-20T13:14:58.279Z,93406.00
2023-02-20T13:15:58.388Z,93404.00
2023-02-20T13:16:58.334Z,93403.00
2023-02-20T13:17:58.341Z,93399.00
2023-02-20T13:18:58.367Z,93399.00
2023-02-20T13:19:58.386Z,93403.00
2023-02-20T13:20:58.397Z,93397.00
2023-02-20T13:21:58.412Z,93397.00
2023-02-20T13:22:58.438Z,93395.00
2023-02-20T13:23:58.443Z,93397.00
2023-02-20T13:24:58.462Z,93397.00
2023-02-20T13:25:58.485Z,93395.00
2023-02-20T13:26:58.498Z,93393.00
2023-02-20T13:27:58.512Z,93391.00
2023-02-20T13:28:58.544Z,93391.00
2023-02-20T13:29:59.476Z,93387.00
2023-02-20T13:30:58.570Z,93389.00
2023-02-20T13:31:58.689Z,93387.00
2023-02-20T13:32:58.600Z,93387.00
2023-02-20T13:33:58.615Z,93387.00
2023-02-20T13:34:58.631Z,93385.00
2023-02-20T13:35:58.648Z,93383.00
2023-02-20T13:36:58.670Z,93383.00
2023-02-20T13:37:58.684Z,93383.00
2023-02-20T13:38:58.694Z,93381.00
2023-02-20T13:39:58.711Z,93381.00
2023-02-20T13:40:58.722Z,93381.00
2023-02-20T13:41:58.745Z,93379.00
2023-02-20T13:42:58.753Z,93379.00
2023-02-20T13:43:58.760Z,93375.00
2023-02-20T13:44:59.466Z,93375.00
2023-02-20T13:45:58.823Z,93377.00
2023-02-20T13:46:58.825Z,93377.00
2023-02-20T13:47:58.817Z,93375.00
2023-02-20T13:48:58.828Z,93373.00
2023-02-20T13:49:59.345Z,93373.00
2023-02-20T13:50:58.850Z,93373.00
2023-02-20T13:51:58.869Z,93373.00
2023-02-20T13:52:58.900Z,93371.00
2023-02-20T13:53:58.903Z,93371.00
2023-02-20T13:54:58.900Z,93373.00
2023-02-20T13:55:58.926Z,93373.00
2023-02-20T13:56:58.935Z,93375.00
2023-02-20T13:57:59.011Z,93375.00
2023-02-20T13:58:58.964Z,93373.00
2023-02-20T13:59:59.004Z,93371.00
2023-02-20T14:00:59.039Z,93371.00
2023-02-20T14:01:59.048Z,93371.00
2023-02-20T14:02:59.077Z,93367.00
2023-02-20T14:03:59.062Z,93371.00
2023-02-20T14:05:00.078Z,93367.00
2023-02-20T14:05:59.099Z,93363.00
2023-02-20T14:06:59.469Z,93365.00
2023-02-20T14:07:59.152Z,93365.00
2023-02-20T14:08:59.156Z,93361.00
2023-02-20T14:09:59.171Z,93361.00
2023-02-20T14:33:59.553Z,93334.00
2023-02-20T14:35:59.590Z,93334.00
2023-02-20T14:36:59.610Z,93330.00
2023-02-20T14:37:59.653Z,93326.00
2023-02-20T14:38:59.728Z,93320.00
2023-02-20T14:39:59.740Z,93315.00
2023-02-20T14:41:01.402Z,93311.00
2023-02-20T14:41:59.727Z,93307.00
2023-02-20T14:42:59.742Z,93305.00
2023-02-20T14:43:59.784Z,93301.00
2023-02-20T14:44:59.788Z,93301.00
2023-02-20T14:46:59.825Z,93295.00
2023-02-20T14:47:59.849Z,93299.00
2023-02-20T14:48:59.860Z,93295.00
2023-02-20T14:49:59.885Z,93297.00
2023-02-20T14:50:59.973Z,93299.00
2023-02-20T14:51:59.922Z,93299.00
2023-02-20T14:52:59.948Z,93305.00
2023-02-20T14:53:59.985Z,93305.00
2023-02-20T18:20:06.937Z,93397.00
2023-02-20T18:23:06.443Z,93397.00
2023-02-20T18:25:06.263Z,93397.00
2023-02-20T18:26:06.298Z,93397.00
2023-02-20T18:27:06.330Z,93399.00
2023-02-20T18:28:06.385Z,93399.00
2023-02-20T18:29:06.943Z,93397.00
2023-02-20T18:30:06.519Z,93395.00
2023-02-20T18:31:06.561Z,93397.00
2023-02-20T18:32:06.615Z,93397.00
2023-02-20T18:33:06.567Z,93395.00
2023-02-20T18:34:06.604Z,93399.00
2023-02-20T18:35:06.628Z,93399.00
2023-02-20T18:36:08.595Z,93399.00
2023-02-20T18:37:06.709Z,93397.00
2023-02-20T18:38:06.742Z,93399.00
2023-02-20T18:39:06.772Z,93397.00
2023-02-20T18:40:06.820Z,93397.00
2023-02-20T18:41:06.851Z,93397.00
2023-02-20T18:42:06.878Z,93397.00
2023-02-20T18:43:06.976Z,93395.00
2023-02-20T18:44:06.971Z,93395.00
2023-02-20T18:45:07.013Z,93397.00
2023-02-20T18:46:07.157Z,93399.00
2023-02-20T18:47:07.091Z,93393.00
2023-02-20T18:48:07.142Z,93393.00
2023-02-20T18:49:07.179Z,93393.00
2023-02-20T18:50:07.220Z,93391.00
2023-02-20T18:51:07.255Z,93393.00
2023-02-20T18:52:07.324Z,93393.00
2023-02-20T18:53:07.339Z,93393.00
2023-02-20T18:54:07.384Z,93393.00
2023-02-20T18:55:07.420Z,93391.00
2023-02-20T18:56:07.460Z,93391.00
2023-02-20T18:57:07.507Z,93393.00
2023-02-20T18:58:07.559Z,93393.00
2023-02-20T18:59:07.592Z,93399.00
2023-02-20T19:00:07.650Z,93399.00
2023-02-20T19:01:07.718Z,93403.00
2023-02-20T19:02:07.759Z,93401.00
2023-02-20T19:03:07.759Z,93403.00
2023-02-20T19:04:07.821Z,93403.00
2023-02-20T19:05:07.866Z,93404.00
2023-02-20T19:06:07.899Z,93403.00
2023-02-20T19:07:07.922Z,93401.00
2023-02-20T19:08:08.002Z,93399.00
2023-02-20T19:09:08.027Z,93399.00
2023-02-20T19:10:08.058Z,93403.00
2023-02-20T19:11:08.255Z,93408.00
2023-02-20T19:12:08.200Z,93408.00
2023-02-20T19:13:08.257Z,93408.00
2023-02-20T19:14:08.239Z,93412.00
2023-02-20T19:15:08.297Z,93410.00
2023-02-20T19:16:08.343Z,93414.00
2023-02-20T19:17:08.385Z,93412.00
2023-02-20T19:18:08.412Z,93414.00
2023-02-20T19:19:08.943Z,93412.00
2023-02-20T19:20:08.494Z,93414.00
2023-02-20T19:21:08.545Z,93414.00
2023-02-20T19:22:08.587Z,93414.00
2023-02-20T19:23:08.696Z,93412.00
2023-02-20T19:24:08.674Z,93414.00
2023-02-20T19:25:08.755Z,93414.00
2023-02-20T19:26:08.737Z,93414.00
2023-02-20T19:27:08.800Z,93416.00
2023-02-20T19:28:08.819Z,93416.00
2023-02-20T19:29:08.943Z,93412.00
2023-02-20T19:30:08.975Z,93412.00
2023-02-20T19:31:09.047Z,93406.00
2023-02-20T19:32:09.114Z,93410.00
2023-02-20T19:33:09.056Z,93410.00
2023-02-20T19:34:09.197Z,93408.00
2023-02-20T19:35:09.216Z,93412.00
2023-02-20T19:36:10.504Z,93410.00
2023-02-20T19:37:09.253Z,93406.00
2023-02-20T19:38:09.328Z,93404.00
2023-02-20T19:39:09.446Z,93401.00
2023-02-20T19:40:09.373Z,93403.00
2023-02-20T19:41:09.418Z,93404.00
2023-02-20T19:42:09.465Z,93399.00
2023-02-20T19:43:09.507Z,93401.00
2023-02-20T19:44:09.537Z,93397.00
2023-02-20T19:45:09.591Z,93395.00
2023-02-20T19:46:09.668Z,93397.00
2023-02-20T19:47:09.691Z,93397.00
2023-02-20T19:48:09.741Z,93397.00
2023-02-20T19:49:09.793Z,93397.00
2023-02-20T19:50:09.890Z,93401.00
2023-02-20T19:51:09.874Z,93406.00
2023-02-20T19:52:09.918Z,93408.00
2023-02-20T19:53:09.968Z,93408.00
2023-02-20T19:54:10.016Z,93406.00
2023-02-20T19:55:10.057Z,93404.00
2023-02-20T19:56:10.106Z,93399.00
2023-02-20T19:57:10.169Z,93399.00
2023-02-20T19:58:10.212Z,93403.00
2023-02-20T19:59:10.249Z,93403.00
2023-02-20T20:00:10.313Z,93404.00
2023-02-20T20:01:10.375Z,93408.00
2023-02-20T20:02:10.408Z,93404.00
2023-02-20T20:03:10.427Z,93406.00
2023-02-20T20:04:10.476Z,93404.00
2023-02-20T20:05:10.534Z,93408.00
2023-02-20T20:06:10.773Z,93410.00
2023-02-20T20:07:10.612Z,93414.00